Time;durP1;ratioP1;P1;durP2;ratioP2;P2;SDS_P1;SDS_P2;PMS_P1;PMS_P2;Temp;Humidity;BMP_temperature;BMP_pressure;BME280_temperature;BME280_humidity;BME280_pressure;Samples;Min_cycle;Max_cycle;Signal;HPM_P1;HPM_P2
2024/01/05 00:01:42;;;;;;;9.02;4.65;;;;;;;;;;5018796;28;20073;-62
2024/01/05 00:04:08;;;;;;;9.05;5.93;;;;;;;;;;5013001;28;20051;-65
2024/01/05 00:06:38;;;;;;;9.43;6.15;;;;;;;;;;5017539;28;20025;-62
2024/01/05 00:09:04;;;;;;;8.60;4.70;;;;;;;;;;5013541;28;20125;-62
2024/01/05 00:11:31;;;;;;;21.63;5.78;;;;;;;;;;5016583;28;20075;-63
2024/01/05 00:13:57;;;;;;;9.93;5.18;;;;;;;;;;5014899;28;20104;-64
2024/01/05 00:16:23;;;;;;;12.88;6.20;;;;;;;;;;5034230;28;20037;-64
2024/01/05 00:18:50;;;;;;;12.10;5.53;;;;;;;;;;5019055;28;20115;-63
2024/01/05 00:21:23;;;;;;;9.23;5.80;;;;;;;;;;5010983;28;20429;-62
2024/01/05 00:23:50;;;;;;;7.30;5.65;;;;;;;;;;5015250;28;20040;-63
2024/01/05 00:26:16;;;;;;;8.52;6.18;;;;;;;;;;5019540;28;20101;-62
2024/01/05 00:28:42;;;;;;;11.90;6.25;;;;;;;;;;5020877;28;20503;-62
2024/01/05 00:31:13;;;;;;;9.25;5.60;;;;;;;;;;5015802;28;20496;-62
2024/01/05 00:33:42;;;;;;;13.05;6.88;;;;;;;;;;5033129;28;20087;-65
2024/01/05 00:36:11;;;;;;;14.10;6.03;;;;;;;;;;5027450;28;20033;-62
2024/01/05 00:38:38;;;;;;;11.70;6.95;;;;;;;;;;5009659;28;20385;-62
2024/01/05 00:41:04;;;;;;;12.10;6.25;;;;;;;;;;5032812;28;20037;-62
2024/01/05 00:43:31;;;;;;;9.57;5.55;;;;;;;;;;5017816;28;20022;-63
2024/01/05 00:45:57;;;;;;;15.38;6.07;;;;;;;;;;5013414;28;20035;-63
2024/01/05 00:48:23;;;;;;;9.52;5.43;;;;;;;;;;5022654;28;20148;-62
2024/01/05 00:50:49;;;;;;;11.90;5.82;;;;;;;;;;5021163;28;20480;-62
2024/01/05 00:53:16;;;;;;;17.83;5.40;;;;;;;;;;5018545;28;20428;-62
2024/01/05 00:55:42;;;;;;;13.23;5.70;;;;;;;;;;5015561;28;20101;-62
2024/01/05 00:58:08;;;;;;;11.45;5.93;;;;;;;;;;5022226;28;20052;-61
2024/01/05 01:00:34;;;;;;;18.92;7.40;;;;;;;;;;5020229;28;20481;-62
2024/01/05 01:03:01;;;;;;;11.32;5.97;;;;;;;;;;5016281;28;20489;-62
2024/01/05 01:05:27;;;;;;;8.05;4.60;;;;;;;;;;5016288;28;20503;-62
2024/01/05 01:07:53;;;;;;;6.97;4.68;;;;;;;;;;5019039;28;20030;-62
2024/01/05 01:10:19;;;;;;;14.98;6.63;;;;;;;;;;5012827;28;20034;-62
2024/01/05 01:12:45;;;;;;;11.57;6.50;;;;;;;;;;5021864;28;20060;-62
2024/01/05 01:15:11;;;;;;;8.82;4.80;;;;;;;;;;5016969;28;20469;-62
2024/01/05 01:17:38;;;;;;;13.23;6.80;;;;;;;;;;5015336;28;20362;-64
2024/01/05 01:20:04;;;;;;;14.32;6.45;;;;;;;;;;5018320;28;20661;-62
2024/01/05 01:22:30;;;;;;;10.98;5.65;;;;;;;;;;5012723;28;20091;-62
2024/01/05 01:24:56;;;;;;;9.68;5.80;;;;;;;;;;5013557;28;20444;-65
2024/01/05 01:27:22;;;;;;;10.55;5.53;;;;;;;;;;5021087;28;20033;-62
2024/01/05 01:29:49;;;;;;;11.82;6.50;;;;;;;;;;5015267;28;20072;-62
2024/01/05 01:32:15;;;;;;;14.65;5.70;;;;;;;;;;5014719;28;20108;-62
2024/01/05 01:34:41;;;;;;;12.80;7.68;;;;;;;;;;5021839;28;20037;-62
2024/01/05 01:37:07;;;;;;;14.27;5.95;;;;;;;;;;5010639;28;20390;-62
2024/01/05 01:39:33;;;;;;;16.65;6.85;;;;;;;;;;5013996;28;20029;-67
2024/01/05 01:42:00;;;;;;;11.05;5.80;;;;;;;;;;5017221;28;20137;-65
2024/01/05 01:44:26;;;;;;;10.77;6.30;;;;;;;;;;5018886;28;20025;-62
2024/01/05 01:46:54;;;;;;;13.90;6.75;;;;;;;;;;5019977;28;20065;-64
2024/01/05 01:49:20;;;;;;;16.10;7.15;;;;;;;;;;5010964;28;20512;-62
2024/01/05 01:51:46;;;;;;;12.40;5.28;;;;;;;;;;5015096;28;20036;-62
2024/01/05 01:54:13;;;;;;;9.45;4.35;;;;;;;;;;5016302;28;20518;-62
2024/01/05 01:56:39;;;;;;;9.18;4.50;;;;;;;;;;5013681;28;20111;-63
2024/01/05 01:59:06;;;;;;;7.05;4.50;;;;;;;;;;5025328;28;20072;-62
2024/01/05 02:01:33;;;;;;;6.40;4.30;;;;;;;;;;5018799;28;20131;-67
2024/01/05 02:04:00;;;;;;;10.00;5.75;;;;;;;;;;5024027;28;20044;-62
2024/01/05 02:06:26;;;;;;;9.00;5.45;;;;;;;;;;5025149;28;20497;-63
2024/01/05 02:08:53;;;;;;;7.10;4.35;;;;;;;;;;5015255;28;20696;-67
2024/01/05 02:11:19;;;;;;;7.72;4.95;;;;;;;;;;5018804;28;20564;-62
2024/01/05 02:13:48;;;;;;;9.07;4.45;;;;;;;;;;5011183;28;20064;-64
2024/01/05 02:16:14;;;;;;;7.57;4.13;;;;;;;;;;5011752;28;20033;-62
2024/01/05 02:18:40;;;;;;;8.45;5.15;;;;;;;;;;5015716;28;20041;-66
2024/01/05 02:21:07;;;;;;;6.88;3.85;;;;;;;;;;5009598;28;20615;-62
2024/01/05 02:23:33;;;;;;;10.65;4.40;;;;;;;;;;5014784;28;20256;-62
2024/01/05 02:26:00;;;;;;;8.90;5.05;;;;;;;;;;5017741;28;20030;-62
2024/01/05 02:28:27;;;;;;;6.20;4.22;;;;;;;;;;5018134;28;20080;-62
2024/01/05 02:30:56;;;;;;;8.23;3.80;;;;;;;;;;5018360;28;20493;-65
2024/01/05 02:33:23;;;;;;;3.67;3.20;;;;;;;;;;5021107;28;20075;-62
2024/01/05 02:35:50;;;;;;;6.47;4.00;;;;;;;;;;5012831;28;20080;-61
2024/01/05 02:38:16;;;;;;;8.63;4.20;;;;;;;;;;5015909;28;20052;-62
2024/01/05 02:40:42;;;;;;;5.72;3.97;;;;;;;;;;5015184;28;20030;-67
2024/01/05 02:43:09;;;;;;;5.65;3.95;;;;;;;;;;5016421;28;20037;-62
2024/01/05 02:45:35;;;;;;;6.28;4.55;;;;;;;;;;5012922;28;20018;-62
2024/01/05 02:48:01;;;;;;;5.90;4.22;;;;;;;;;;5016920;28;20071;-62
2024/01/05 02:50:27;;;;;;;6.80;4.57;;;;;;;;;;5017365;28;20053;-62
2024/01/05 02:52:54;;;;;;;5.40;3.85;;;;;;;;;;5019034;28;20043;-62
2024/01/05 02:55:20;;;;;;;6.28;4.75;;;;;;;;;;5017775;28;20038;-62
2024/01/05 02:57:46;;;;;;;7.95;4.60;;;;;;;;;;5017978;28;20042;-62
2024/01/05 03:00:12;;;;;;;5.97;3.17;;;;;;;;;;5012993;28;20140;-62
2024/01/05 03:02:39;;;;;;;5.72;4.18;;;;;;;;;;5013420;28;20096;-62
2024/01/05 03:05:05;;;;;;;5.78;3.72;;;;;;;;;;5030861;28;20040;-62
2024/01/05 03:07:31;;;;;;;4.72;3.40;;;;;;;;;;5014206;28;20040;-62
2024/01/05 03:09:58;;;;;;;5.93;3.90;;;;;;;;;;5020706;28;20029;-62
2024/01/05 03:12:24;;;;;;;7.40;4.10;;;;;;;;;;5012291;28;20025;-62
2024/01/05 03:14:50;;;;;;;5.40;3.55;;;;;;;;;;5015949;28;20013;-62
2024/01/05 03:17:16;;;;;;;5.57;3.50;;;;;;;;;;5015012;28;21050;-62
2024/01/05 03:19:42;;;;;;;4.57;3.40;;;;;;;;;;5010396;28;20118;-61
2024/01/05 03:22:09;;;;;;;6.18;4.40;;;;;;;;;;5017769;28;20036;-62
2024/01/05 03:24:35;;;;;;;8.48;4.13;;;;;;;;;;5022118;28;20029;-62
2024/01/05 03:27:01;;;;;;;5.68;4.00;;;;;;;;;;5020473;28;20034;-65
2024/01/05 03:29:27;;;;;;;10.68;4.57;;;;;;;;;;5013970;28;20414;-62
2024/01/05 03:31:53;;;;;;;5.38;4.00;;;;;;;;;;5030780;28;20411;-62
2024/01/05 03:34:20;;;;;;;5.97;3.53;;;;;;;;;;5014344;28;20029;-62
2024/01/05 03:36:46;;;;;;;5.07;3.47;;;;;;;;;;5017179;28;20034;-63
2024/01/05 03:39:12;;;;;;;5.65;3.63;;;;;;;;;;5012933;28;20502;-62
2024/01/05 03:41:38;;;;;;;5.07;3.13;;;;;;;;;;5015390;28;20029;-63
2024/01/05 03:44:05;;;;;;;5.63;3.63;;;;;;;;;;5012980;28;20029;-62
2024/01/05 03:46:31;;;;;;;6.35;3.78;;;;;;;;;;5012654;28;20026;-62
2024/01/05 03:48:57;;;;;;;4.43;3.30;;;;;;;;;;5018257;28;20118;-62
2024/01/05 03:51:23;;;;;;;6.03;3.80;;;;;;;;;;5014141;28;20059;-62
2024/01/05 03:53:49;;;;;;;6.35;3.72;;;;;;;;;;5018138;28;20033;-62
2024/01/05 03:56:16;;;;;;;4.72;3.35;;;;;;;;;;5020465;28;20038;-62
2024/01/05 03:58:42;;;;;;;6.65;3.22;;;;;;;;;;5034430;28;20303;-62
2024/01/05 04:01:09;;;;;;;6.97;3.03;;;;;;;;;;5017006;28;20026;-62
2024/01/05 04:03:35;;;;;;;5.40;3.30;;;;;;;;;;5031421;28;20494;-62
2024/01/05 04:06:03;;;;;;;5.00;3.40;;;;;;;;;;5017524;28;20034;-62
2024/01/05 04:08:29;;;;;;;6.47;3.95;;;;;;;;;;5019311;28;20070;-63
2024/01/05 04:10:55;;;;;;;7.28;3.47;;;;;;;;;;5014902;28;20112;-62
2024/01/05 04:13:21;;;;;;;7.82;3.75;;;;;;;;;;5013844;28;20026;-62
2024/01/05 04:15:47;;;;;;;5.68;3.75;;;;;;;;;;5018989;28;20389;-64
2024/01/05 04:18:13;;;;;;;4.88;3.08;;;;;;;;;;5026931;28;20513;-62
2024/01/05 04:20:39;;;;;;;4.10;3.38;;;;;;;;;;5015580;28;20567;-62
2024/01/05 04:23:05;;;;;;;6.00;3.65;;;;;;;;;;5037561;28;20025;-62
2024/01/05 04:25:32;;;;;;;5.15;3.05;;;;;;;;;;5020499;28;20022;-62
2024/01/05 04:27:58;;;;;;;4.55;3.83;;;;;;;;;;5016889;28;20053;-62
2024/01/05 04:30:25;;;;;;;4.15;3.05;;;;;;;;;;5034785;28;20036;-62
2024/01/05 04:32:51;;;;;;;4.93;2.90;;;;;;;;;;5020680;28;20090;-61
2024/01/05 04:35:17;;;;;;;5.22;3.30;;;;;;;;;;5013819;28;20132;-62
2024/01/05 04:37:44;;;;;;;4.28;3.08;;;;;;;;;;5015071;28;20014;-62
2024/01/05 04:40:10;;;;;;;11.00;3.17;;;;;;;;;;5031822;28;20432;-62
2024/01/05 04:42:37;;;;;;;5.63;3.78;;;;;;;;;;5022775;28;20477;-62
2024/01/05 04:45:03;;;;;;;4.72;3.30;;;;;;;;;;5014524;28;20026;-62
2024/01/05 04:47:29;;;;;;;5.07;3.13;;;;;;;;;;5016372;28;20052;-62
2024/01/05 04:49:55;;;;;;;4.85;3.17;;;;;;;;;;5018112;28;20053;-62
2024/01/05 04:52:21;;;;;;;3.30;2.97;;;;;;;;;;5035004;28;20041;-65
2024/01/05 04:54:47;;;;;;;5.65;2.92;;;;;;;;;;5018652;28;20095;-63
2024/01/05 04:57:14;;;;;;;5.00;3.33;;;;;;;;;;5033663;28;20496;-62
2024/01/05 04:59:41;;;;;;;17.00;3.17;;;;;;;;;;5022089;28;20516;-62
2024/01/05 05:02:08;;;;;;;5.13;3.63;;;;;;;;;;5022311;28;20260;-61
2024/01/05 05:04:34;;;;;;;4.07;2.95;;;;;;;;;;5019258;28;20034;-64
2024/01/05 05:07:00;;;;;;;3.75;2.95;;;;;;;;;;5017157;28;20076;-62
2024/01/05 05:09:26;;;;;;;6.55;3.33;;;;;;;;;;5020802;28;20392;-62
2024/01/05 05:11:52;;;;;;;5.30;2.97;;;;;;;;;;5019911;28;20026;-62
2024/01/05 05:14:19;;;;;;;4.22;2.83;;;;;;;;;;5018659;28;20033;-62
2024/01/05 05:16:45;;;;;;;3.25;2.95;;;;;;;;;;5009916;28;20140;-62
2024/01/05 05:19:11;;;;;;;5.50;3.13;;;;;;;;;;5016923;28;20084;-62
2024/01/05 05:21:37;;;;;;;6.53;3.28;;;;;;;;;;5008076;28;20125;-62
2024/01/05 05:24:03;;;;;;;3.17;2.55;;;;;;;;;;5022513;28;20037;-62
2024/01/05 05:26:29;;;;;;;4.15;2.65;;;;;;;;;;5019430;28;20036;-63
2024/01/05 05:28:55;;;;;;;7.65;3.03;;;;;;;;;;5021048;28;20099;-62
2024/01/05 05:31:21;;;;;;;2.15;2.03;;;;;;;;;;5016777;28;20554;-62
2024/01/05 05:33:48;;;;;;;6.80;3.05;;;;;;;;;;5014337;28;20553;-62
2024/01/05 05:36:14;;;;;;;7.70;2.85;;;;;;;;;;5009206;28;20036;-62
2024/01/05 05:38:40;;;;;;;4.80;2.83;;;;;;;;;;5040044;28;20833;-61
2024/01/05 05:41:06;;;;;;;4.72;2.47;;;;;;;;;;5016295;28;20393;-64
2024/01/05 05:43:32;;;;;;;2.78;2.55;;;;;;;;;;5008330;28;20509;-62
2024/01/05 05:45:58;;;;;;;5.60;2.88;;;;;;;;;;5016700;28;20040;-62
2024/01/05 05:48:25;;;;;;;5.63;2.60;;;;;;;;;;5015498;28;20037;-61
2024/01/05 05:50:51;;;;;;;3.45;2.38;;;;;;;;;;5018668;28;20409;-62
2024/01/05 05:53:17;;;;;;;3.47;2.30;;;;;;;;;;5018810;28;20634;-62
2024/01/05 05:55:43;;;;;;;6.88;2.55;;;;;;;;;;5016114;28;20025;-62
2024/01/05 05:58:09;;;;;;;3.53;2.33;;;;;;;;;;5019688;28;20041;-62
2024/01/05 06:00:36;;;;;;;5.68;2.80;;;;;;;;;;5015423;28;20029;-61
2024/01/05 06:03:05;;;;;;;4.30;3.05;;;;;;;;;;5009985;28;20025;-61
2024/01/05 06:05:32;;;;;;;4.20;2.13;;;;;;;;;;5018209;28;20571;-61
2024/01/05 06:07:58;;;;;;;8.50;2.38;;;;;;;;;;5024982;28;20022;-63
2024/01/05 06:10:24;;;;;;;6.05;2.85;;;;;;;;;;5013534;28;20033;-62
2024/01/05 06:12:50;;;;;;;3.78;2.38;;;;;;;;;;5023768;28;20038;-62
2024/01/05 06:15:16;;;;;;;4.75;2.47;;;;;;;;;;5032057;28;20124;-61
2024/01/05 06:17:43;;;;;;;4.15;2.38;;;;;;;;;;5021726;28;20411;-62
2024/01/05 06:20:09;;;;;;;5.22;2.55;;;;;;;;;;5019761;28;20053;-61
2024/01/05 06:22:35;;;;;;;2.22;1.98;;;;;;;;;;5017793;28;20041;-62
2024/01/05 06:25:01;;;;;;;5.32;2.22;;;;;;;;;;5024086;28;20033;-62
2024/01/05 06:27:28;;;;;;;2.35;1.95;;;;;;;;;;5022200;28;20021;-62
2024/01/05 06:29:55;;;;;;;3.63;2.08;;;;;;;;;;5004874;28;20171;-61
2024/01/05 06:32:21;;;;;;;2.13;1.90;;;;;;;;;;5005475;28;20512;-62
2024/01/05 06:34:47;;;;;;;4.45;2.45;;;;;;;;;;5006298;28;20096;-62
2024/01/05 06:37:13;;;;;;;1.77;1.67;;;;;;;;;;5023812;28;20036;-63
2024/01/05 06:39:39;;;;;;;3.80;2.70;;;;;;;;;;5005527;28;20426;-62
2024/01/05 06:42:05;;;;;;;3.05;2.53;;;;;;;;;;5011421;28;20038;-62
2024/01/05 06:44:32;;;;;;;2.30;2.10;;;;;;;;;;5004758;28;20040;-66
2024/01/05 06:46:58;;;;;;;3.20;2.35;;;;;;;;;;5008942;28;20042;-66
2024/01/05 06:49:25;;;;;;;3.38;1.88;;;;;;;;;;5014916;28;20075;-62
2024/01/05 06:51:51;;;;;;;7.22;2.40;;;;;;;;;;5024115;28;20026;-62
2024/01/05 06:54:17;;;;;;;3.13;2.70;;;;;;;;;;5009395;28;20021;-62
2024/01/05 06:56:44;;;;;;;7.90;2.53;;;;;;;;;;5008683;28;20235;-62
2024/01/05 06:59:10;;;;;;;8.90;2.22;;;;;;;;;;5006288;28;20037;-62
2024/01/05 07:01:36;;;;;;;3.60;1.95;;;;;;;;;;5015906;28;20075;-62
2024/01/05 07:04:03;;;;;;;2.85;1.90;;;;;;;;;;5017925;28;20037;-62
2024/01/05 07:06:29;;;;;;;8.57;2.90;;;;;;;;;;5009910;28;20025;-62
2024/01/05 07:08:55;;;;;;;3.25;2.55;;;;;;;;;;5015420;28;20412;-61
2024/01/05 07:11:22;;;;;;;2.00;1.90;;;;;;;;;;5015743;28;20064;-64
2024/01/05 07:13:48;;;;;;;7.28;2.22;;;;;;;;;;5008000;28;20107;-65
2024/01/05 07:16:15;;;;;;;2.28;2.08;;;;;;;;;;5015878;28;20029;-66
2024/01/05 07:18:41;;;;;;;2.05;1.80;;;;;;;;;;5016745;28;20087;-68
2024/01/05 07:21:07;;;;;;;2.60;2.40;;;;;;;;;;5019984;28;20021;-65
2024/01/05 07:23:33;;;;;;;2.78;2.13;;;;;;;;;;5018011;28;20116;-66
2024/01/05 07:26:03;;;;;;;2.72;1.85;;;;;;;;;;5018174;28;20140;-65
2024/01/05 07:28:29;;;;;;;2.47;2.17;;;;;;;;;;5015211;28;20028;-65
2024/01/05 07:30:55;;;;;;;2.35;2.15;;;;;;;;;;5021785;28;20095;-64
2024/01/05 07:33:23;;;;;;;5.28;2.35;;;;;;;;;;5020264;28;20018;-64
2024/01/05 07:35:49;;;;;;;4.30;2.33;;;;;;;;;;5020559;28;20508;-65
2024/01/05 07:38:15;;;;;;;1.75;1.65;;;;;;;;;;5016691;28;20026;-65
2024/01/05 07:40:41;;;;;;;2.15;1.73;;;;;;;;;;5020177;28;21609;-64
2024/01/05 07:43:10;;;;;;;3.70;2.08;;;;;;;;;;5015644;28;20024;-65
2024/01/05 07:45:36;;;;;;;2.10;1.90;;;;;;;;;;5019792;28;20034;-65
2024/01/05 07:48:03;;;;;;;4.25;1.63;;;;;;;;;;5019565;28;20509;-64
2024/01/05 07:50:31;;;;;;;3.20;2.13;;;;;;;;;;5016886;28;20501;-66
2024/01/05 07:52:57;;;;;;;8.65;2.00;;;;;;;;;;5018560;28;20037;-65
2024/01/05 07:55:23;;;;;;;1.70;1.60;;;;;;;;;;5018884;28;20393;-65
2024/01/05 07:57:49;;;;;;;3.13;1.95;;;;;;;;;;5012519;28;20484;-65
2024/01/05 08:00:16;;;;;;;1.58;1.48;;;;;;;;;;5006883;28;20567;-64
2024/01/05 08:02:42;;;;;;;8.48;2.22;;;;;;;;;;5006056;28;20228;-70
2024/01/05 08:05:11;;;;;;;6.78;1.80;;;;;;;;;;5007974;28;20025;-64
2024/01/05 08:07:37;;;;;;;4.30;1.90;;;;;;;;;;5019508;28;20616;-64
2024/01/05 08:10:04;;;;;;;1.55;1.45;;;;;;;;;;5016765;28;20136;-63
2024/01/05 08:12:31;;;;;;;2.28;2.03;;;;;;;;;;5024047;28;20156;-62
2024/01/05 08:14:58;;;;;;;1.85;1.48;;;;;;;;;;5015067;28;20056;-61
2024/01/05 08:17:24;;;;;;;1.60;1.50;;;;;;;;;;5032177;28;20057;-63
2024/01/05 08:19:50;;;;;;;3.38;1.98;;;;;;;;;;5011876;28;20037;-62
2024/01/05 08:22:16;;;;;;;1.75;1.65;;;;;;;;;;5004995;28;20060;-61
2024/01/05 08:24:42;;;;;;;2.17;1.98;;;;;;;;;;5015462;28;20444;-62
2024/01/05 08:27:09;;;;;;;1.60;1.50;;;;;;;;;;5002655;28;20416;-66
2024/01/05 08:29:35;;;;;;;3.80;1.95;;;;;;;;;;5003834;28;20029;-61
2024/01/05 08:32:02;;;;;;;6.15;1.80;;;;;;;;;;5017160;28;20033;-66
2024/01/05 08:34:29;;;;;;;1.98;1.77;;;;;;;;;;5012509;28;20025;-63
2024/01/05 08:36:55;;;;;;;1.48;1.40;;;;;;;;;;5015753;28;20040;-63
2024/01/05 08:39:21;;;;;;;1.52;1.42;;;;;;;;;;5016036;28;20033;-64
2024/01/05 08:41:48;;;;;;;2.55;1.38;;;;;;;;;;5013471;28;20097;-66
2024/01/05 08:44:14;;;;;;;2.65;1.92;;;;;;;;;;5015240;28;20026;-66
2024/01/05 08:46:41;;;;;;;1.40;1.30;;;;;;;;;;5028743;28;20032;-66
2024/01/05 08:49:07;;;;;;;6.40;1.95;;;;;;;;;;5015010;28;20389;-64
2024/01/05 08:51:33;;;;;;;7.47;1.85;;;;;;;;;;5017154;28;20386;-64
2024/01/05 08:54:01;;;;;;;1.83;1.73;;;;;;;;;;5018969;28;20030;-64
2024/01/05 08:56:28;;;;;;;4.47;1.50;;;;;;;;;;5008649;28;20439;-65
2024/01/05 08:58:54;;;;;;;4.15;2.20;;;;;;;;;;5015406;28;20496;-63
2024/01/05 09:01:20;;;;;;;1.50;1.40;;;;;;;;;;5012856;28;20034;-64
2024/01/05 09:03:46;;;;;;;1.77;1.65;;;;;;;;;;5016796;28;20037;-63
2024/01/05 09:06:13;;;;;;;1.63;1.40;;;;;;;;;;5020104;28;20487;-63
2024/01/05 09:08:39;;;;;;;1.80;1.63;;;;;;;;;;5020239;28;20456;-63
2024/01/05 09:11:05;;;;;;;10.38;2.03;;;;;;;;;;5015699;28;20497;-63
2024/01/05 09:13:31;;;;;;;1.35;1.33;;;;;;;;;;5018659;28;20076;-63
2024/01/05 09:15:58;;;;;;;1.70;1.38;;;;;;;;;;5018154;28;20398;-64
2024/01/05 09:18:24;;;;;;;1.45;1.40;;;;;;;;;;5016307;28;20444;-66
2024/01/05 09:20:53;;;;;;;1.13;1.13;;;;;;;;;;5024729;28;20025;-76
2024/01/05 09:23:19;;;;;;;6.18;1.95;;;;;;;;;;5022589;28;20389;-77
2024/01/05 09:25:46;;;;;;;5.28;1.92;;;;;;;;;;5022937;28;20475;-77
2024/01/05 09:28:12;;;;;;;2.53;1.50;;;;;;;;;;5022432;28;20025;-77
2024/01/05 09:30:38;;;;;;;1.40;1.30;;;;;;;;;;5019005;28;20037;-77
2024/01/05 09:33:04;;;;;;;7.40;2.03;;;;;;;;;;5023275;28;20037;-76
2024/01/05 09:35:30;;;;;;;3.20;1.58;;;;;;;;;;5024839;28;20018;-76
2024/01/05 09:37:57;;;;;;;2.67;2.03;;;;;;;;;;5017791;28;20100;-76
2024/01/05 09:40:24;;;;;;;6.97;1.90;;;;;;;;;;5028383;28;20030;-76
2024/01/05 09:42:51;;;;;;;4.18;2.53;;;;;;;;;;5020901;28;20195;-76
2024/01/05 09:45:21;;;;;;;5.32;2.40;;;;;;;;;;5020720;28;20561;-76
2024/01/05 09:47:48;;;;;;;1.65;1.55;;;;;;;;;;5037774;28;20034;-76
2024/01/05 09:50:16;;;;;;;7.00;1.58;;;;;;;;;;5023485;28;20370;-77
2024/01/05 09:52:43;;;;;;;1.30;1.30;;;;;;;;;;5024075;28;20021;-77
2024/01/05 09:55:09;;;;;;;8.10;2.58;;;;;;;;;;5020766;28;20120;-77
2024/01/05 09:57:37;;;;;;;1.40;1.40;;;;;;;;;;5017945;28;20031;-76
2024/01/05 10:00:04;;;;;;;3.85;1.80;;;;;;;;;;5022783;28;20045;-76
2024/01/05 10:02:44;;;;;;;2.90;1.67;;;;;;;;;;5025794;28;20064;-76
2024/01/05 10:05:11;;;;;;;2.92;1.90;;;;;;;;;;5025754;28;20021;-76
2024/01/05 10:07:50;;;;;;;14.60;2.75;;;;;;;;;;5027594;28;20294;-76
2024/01/05 10:10:16;;;;;;;1.85;1.75;;;;;;;;;;5028331;28;20473;-76
2024/01/05 10:12:42;;;;;;;3.28;2.30;;;;;;;;;;5017179;28;20053;-77
2024/01/05 10:15:11;;;;;;;2.67;1.83;;;;;;;;;;5012051;28;20107;-77
2024/01/05 10:17:38;;;;;;;3.72;2.40;;;;;;;;;;5027667;28;20040;-76
2024/01/05 10:20:13;;;;;;;3.97;2.10;;;;;;;;;;5017839;28;20021;-77
2024/01/05 10:22:41;;;;;;;7.32;2.40;;;;;;;;;;5021349;28;20745;-76
2024/01/05 10:25:33;;;;;;;4.07;2.63;;;;;;;;;;5023898;28;20602;-77
2024/01/05 10:27:59;;;;;;;3.22;2.35;;;;;;;;;;5006321;28;20041;-76
2024/01/05 10:30:28;;;;;;;2.63;2.38;;;;;;;;;;5013774;28;20026;-77
2024/01/05 10:33:05;;;;;;;2.78;2.00;;;;;;;;;;5017212;28;20079;-73
2024/01/05 10:35:32;;;;;;;5.22;2.60;;;;;;;;;;5020593;28;20022;-73
2024/01/05 10:38:11;;;;;;;9.65;4.35;;;;;;;;;;5036492;28;20071;-73
2024/01/05 10:40:38;;;;;;;2.42;2.08;;;;;;;;;;5017904;28;20469;-73
2024/01/05 10:43:15;;;;;;;6.07;2.88;;;;;;;;;;5017056;28;20040;-73
2024/01/05 10:45:42;;;;;;;5.40;3.25;;;;;;;;;;5012331;28;20834;-73
2024/01/05 10:48:09;;;;;;;7.45;2.60;;;;;;;;;;5018632;28;20034;-73
2024/01/05 10:50:37;;;;;;;6.28;2.45;;;;;;;;;;5008014;28;20083;-72
2024/01/05 10:53:04;;;;;;;7.72;2.03;;;;;;;;;;5023103;28;20033;-74
2024/01/05 10:55:31;;;;;;;11.25;2.53;;;;;;;;;;5024826;28;20018;-70
2024/01/05 10:57:58;;;;;;;3.75;1.95;;;;;;;;;;5020835;28;20032;-72
2024/01/05 11:00:24;;;;;;;2.25;2.05;;;;;;;;;;5020820;28;20025;-73
2024/01/05 11:03:00;;;;;;;2.85;1.63;;;;;;;;;;5022676;28;20124;-71
2024/01/05 11:05:27;;;;;;;2.17;1.90;;;;;;;;;;5023706;28;20032;-69
2024/01/05 11:07:53;;;;;;;5.43;2.67;;;;;;;;;;5013930;28;20041;-72
2024/01/05 11:10:23;;;;;;;2.10;1.90;;;;;;;;;;5019177;28;20036;-73
2024/01/05 11:13:08;;;;;;;1.80;1.60;;;;;;;;;;5020648;28;20088;-74
2024/01/05 11:15:53;;;;;;;5.65;1.92;;;;;;;;;;5019679;28;20026;-71
2024/01/05 11:18:37;;;;;;;3.67;2.25;;;;;;;;;;5017018;28;20827;-72
2024/01/05 11:21:20;;;;;;;2.40;2.20;;;;;;;;;;5019227;28;20321;-74
2024/01/05 11:23:49;;;;;;;4.47;3.03;;;;;;;;;;5022381;28;20055;-75
2024/01/05 11:26:41;;;;;;;3.42;2.08;;;;;;;;;;5015982;28;20061;-72
2024/01/05 11:29:12;;;;;;;2.22;1.95;;;;;;;;;;5036056;28;20064;-73
2024/01/05 11:31:47;;;;;;;5.10;2.45;;;;;;;;;;5025032;28;20021;-75
2024/01/05 11:34:30;;;;;;;7.85;2.28;;;;;;;;;;5024717;28;20047;-73
2024/01/05 11:36:57;;;;;;;3.90;2.08;;;;;;;;;;5025756;28;20357;-72
2024/01/05 11:39:44;;;;;;;7.97;2.20;;;;;;;;;;5026865;28;20042;-74
2024/01/05 11:42:10;;;;;;;3.42;2.22;;;;;;;;;;5023065;28;20028;-72
2024/01/05 11:44:37;;;;;;;1.98;1.77;;;;;;;;;;5023744;28;20029;-74
2024/01/05 11:47:03;;;;;;;5.07;2.15;;;;;;;;;;5020357;28;20032;-71
2024/01/05 11:49:36;;;;;;;5.00;2.15;;;;;;;;;;5019777;28;20037;-72
2024/01/05 11:52:03;;;;;;;6.75;2.50;;;;;;;;;;5025568;28;20025;-71
2024/01/05 11:54:29;;;;;;;5.38;2.65;;;;;;;;;;5033383;28;20427;-70
2024/01/05 11:56:58;;;;;;;3.42;1.80;;;;;;;;;;5009481;28;20025;-70
2024/01/05 11:59:25;;;;;;;4.63;1.80;;;;;;;;;;5019711;28;20049;-70
2024/01/05 12:01:52;;;;;;;3.28;2.35;;;;;;;;;;5033182;28;20025;-72
2024/01/05 12:04:19;;;;;;;2.42;1.67;;;;;;;;;;5024499;28;20436;-74
2024/01/05 12:06:52;;;;;;;5.63;1.83;;;;;;;;;;5019555;28;20070;-71
2024/01/05 12:09:19;;;;;;;4.25;1.67;;;;;;;;;;5028165;28;20026;-72
2024/01/05 12:11:45;;;;;;;2.80;1.85;;;;;;;;;;5026513;28;20528;-76
2024/01/05 12:14:12;;;;;;;3.05;2.60;;;;;;;;;;5023101;28;20022;-75
2024/01/05 12:16:39;;;;;;;3.08;2.22;;;;;;;;;;5018419;28;20677;-71
2024/01/05 12:19:05;;;;;;;2.30;2.00;;;;;;;;;;5021515;28;20137;-75
2024/01/05 12:21:31;;;;;;;7.60;2.30;;;;;;;;;;5022564;28;20440;-74
2024/01/05 12:24:01;;;;;;;4.28;1.90;;;;;;;;;;5018129;28;20021;-73
2024/01/05 12:26:29;;;;;;;4.60;2.53;;;;;;;;;;5020251;28;21351;-75
2024/01/05 12:28:56;;;;;;;4.18;2.08;;;;;;;;;;5020855;28;20036;-75
2024/01/05 12:31:22;;;;;;;3.97;2.00;;;;;;;;;;5028363;28;20040;-74
2024/01/05 12:33:49;;;;;;;2.05;1.73;;;;;;;;;;5023736;28;20064;-77
2024/01/05 12:36:28;;;;;;;2.38;1.73;;;;;;;;;;5021995;28;20037;-72
2024/01/05 12:38:54;;;;;;;4.55;2.20;;;;;;;;;;5021290;28;20033;-71
2024/01/05 12:41:20;;;;;;;6.43;2.10;;;;;;;;;;5023170;28;20018;-75
2024/01/05 12:43:49;;;;;;;4.25;2.05;;;;;;;;;;5020895;28;20417;-78
2024/01/05 12:46:16;;;;;;;4.82;2.65;;;;;;;;;;5024139;28;20425;-75
2024/01/05 12:48:42;;;;;;;6.20;1.73;;;;;;;;;;5021393;28;20025;-76
2024/01/05 12:51:09;;;;;;;2.65;1.85;;;;;;;;;;5023782;28;20064;-74
2024/01/05 12:53:36;;;;;;;5.32;2.58;;;;;;;;;;5028860;28;20025;-74
2024/01/05 12:56:07;;;;;;;5.10;1.92;;;;;;;;;;5025033;28;20401;-73
2024/01/05 12:58:43;;;;;;;4.25;2.20;;;;;;;;;;5016419;28;20084;-62
2024/01/05 13:01:35;;;;;;;5.70;2.50;;;;;;;;;;5018170;28;20107;-63
2024/01/05 13:04:01;;;;;;;4.10;1.85;;;;;;;;;;5016474;28;20099;-63
2024/01/05 13:06:29;;;;;;;5.32;2.55;;;;;;;;;;5013792;28;20036;-63
2024/01/05 13:08:56;;;;;;;4.82;1.83;;;;;;;;;;5019662;28;20022;-63
2024/01/05 13:11:22;;;;;;;4.78;2.50;;;;;;;;;;5020741;28;20029;-63
2024/01/05 13:13:52;;;;;;;4.00;2.10;;;;;;;;;;5017487;28;20034;-66
2024/01/05 13:16:18;;;;;;;3.83;2.00;;;;;;;;;;5014665;28;20025;-63
2024/01/05 13:18:45;;;;;;;3.10;1.92;;;;;;;;;;5013834;28;20022;-62
2024/01/05 13:21:11;;;;;;;6.22;2.90;;;;;;;;;;5014101;28;20025;-62
2024/01/05 13:23:40;;;;;;;6.07;1.90;;;;;;;;;;5012340;28;20120;-61
2024/01/05 13:26:06;;;;;;;7.22;2.00;;;;;;;;;;5013070;28;20036;-62
2024/01/05 13:28:35;;;;;;;3.63;2.83;;;;;;;;;;5012290;28;20117;-62
2024/01/05 13:31:02;;;;;;;4.15;2.50;;;;;;;;;;5015802;28;20040;-62
2024/01/05 13:33:28;;;;;;;3.22;1.92;;;;;;;;;;5009106;28;20033;-62
2024/01/05 13:35:54;;;;;;;2.53;1.88;;;;;;;;;;5015534;28;20026;-62
2024/01/05 13:38:22;;;;;;;3.25;2.05;;;;;;;;;;5014771;28;20026;-62
2024/01/05 13:40:48;;;;;;;5.68;1.98;;;;;;;;;;5012158;28;20029;-62
2024/01/05 13:43:14;;;;;;;3.00;1.85;;;;;;;;;;5012279;28;20116;-62
2024/01/05 13:45:40;;;;;;;6.25;2.30;;;;;;;;;;5004626;28;20026;-62
2024/01/05 13:48:06;;;;;;;5.35;2.25;;;;;;;;;;5001151;28;20026;-63
2024/01/05 13:50:33;;;;;;;8.18;2.13;;;;;;;;;;5005901;28;20111;-63
2024/01/05 13:53:03;;;;;;;3.78;2.25;;;;;;;;;;5013307;28;20060;-63
2024/01/05 13:55:29;;;;;;;4.35;2.00;;;;;;;;;;5015191;28;20030;-62
2024/01/05 13:57:55;;;;;;;7.75;2.30;;;;;;;;;;5010235;28;20036;-62
2024/01/05 14:00:22;;;;;;;3.70;2.20;;;;;;;;;;5012357;28;20025;-63
2024/01/05 14:02:48;;;;;;;7.28;2.83;;;;;;;;;;5016251;28;20034;-63
2024/01/05 14:05:14;;;;;;;5.38;2.47;;;;;;;;;;5016001;28;20029;-62
2024/01/05 14:07:40;;;;;;;5.00;2.60;;;;;;;;;;5025268;28;20080;-62
2024/01/05 14:10:06;;;;;;;6.82;2.10;;;;;;;;;;5009091;28;20029;-62
2024/01/05 14:12:33;;;;;;;6.00;3.05;;;;;;;;;;5014166;28;20033;-62
2024/01/05 14:14:59;;;;;;;5.30;2.92;;;;;;;;;;5015022;28;20845;-63
2024/01/05 14:17:25;;;;;;;6.18;2.10;;;;;;;;;;5036994;28;20105;-63
2024/01/05 14:19:52;;;;;;;4.78;2.72;;;;;;;;;;5015589;28;20072;-62
2024/01/05 14:22:19;;;;;;;3.75;2.20;;;;;;;;;;5013782;28;20056;-61
2024/01/05 14:24:46;;;;;;;3.50;2.05;;;;;;;;;;5015336;28;20686;-62
2024/01/05 14:27:12;;;;;;;4.22;2.92;;;;;;;;;;5019013;28;20381;-65
2024/01/05 14:29:38;;;;;;;6.28;2.67;;;;;;;;;;5028281;28;20036;-61
2024/01/05 14:32:05;;;;;;;4.50;2.60;;;;;;;;;;5016996;28;20017;-61
2024/01/05 14:34:31;;;;;;;3.90;2.47;;;;;;;;;;5015059;28;20440;-62
2024/01/05 14:36:57;;;;;;;7.80;3.30;;;;;;;;;;5015523;28;20338;-62
2024/01/05 14:39:27;;;;;;;3.58;2.20;;;;;;;;;;5014201;28;20033;-62
2024/01/05 14:41:53;;;;;;;6.85;2.53;;;;;;;;;;5015458;28;20757;-62